KATW/ATW METAR and TAF weather

Enter ICAO airport designator
Station Type Date Time Source
KATW METAR 2018/12/10 23:45 UTC NOAA

KATW 102345Z 27007KT 10SM SCT100 M07/M10 A3002


Station Type Date Time Source
KATW Decoded METAR 2018/12/10 23:45 UTC NOAA

Appleton / Outagamie, WI, United States (KATW) 44-15N 088-31W
Dec 10, 2018 - 06:45 PM EST / 2018.12.10 2345 UTC
Wind: from the W (270 degrees) at 8 MPH (7 KT):0
Visibility: 10 mile(s):0
Sky conditions: partly cloudy
Temperature: 19 F (-7 C)
Windchill: 8 F (-13 C):1
Dew Point: 14 F (-10 C)
Relative Humidity: 79%
Pressure (altimeter): 30.02 in. Hg (1016 hPa)
ob: KATW 102345Z 27007KT 10SM SCT100 M07/M10 A3002
cycle: 0

Station Type Date Time Source
KATW TAF 2018/12/10 23:21 UTC NOAA

TAF
AMD KATW 102319Z 1023/1118 24009KT 5SM BR SCT008
FM110100 24008KT 4SM BR BKN006
FM110400 25007KT 2SM BR BKN004
TEMPO 1109/1113 3/4SM BR BKN003
FM111600 30005KT 5SM BR SCT009


Example: see airport list